Terminal Aerodrome Forecast
Issued by NWS Cleveland, OH

Home | Current Version | Previous Version | Graphics & Text | Print | Product List | Glossary On
Versions: 1 2 3 4 5 6 7 8 9 10 11 12 13 14 15 16
000
FTUS41 KCLE 151927 AAA
TAFCAK
TAF AMD
KCAK 151927Z 1519/1618 26020G32KT P6SM VCSH SCT015 OVC025
      TEMPO 1519/1521 VRB30G40KT 2SM TSRA BKN015CB OVC025
     FM152200 28015G30KT P6SM SCT015 BKN025
     FM160100 29014G22KT P6SM BKN015
     FM161000 32008KT P6SM SCT015 BKN025=

USA.gov is the U.S. government's official web portal to all federal, state and local government web resources and services.